sensor_id;sensor_type;location;lat;lon;timestamp;P1;durP1;ratioP1;P2;durP2;ratioP2
35578;SDS011;21687;48.900;9.188;2022-08-23T00:01:52;2.23;;;2.10;;
35578;SDS011;21687;48.900;9.188;2022-08-23T00:04:21;1.87;;;1.73;;
35578;SDS011;21687;48.900;9.188;2022-08-23T00:06:50;2.47;;;2.00;;
35578;SDS011;21687;48.900;9.188;2022-08-23T00:09:18;2.10;;;2.00;;
35578;SDS011;21687;48.900;9.188;2022-08-23T00:11:48;2.90;;;2.17;;
35578;SDS011;21687;48.900;9.188;2022-08-23T00:14:36;3.10;;;2.00;;
35578;SDS011;21687;48.900;9.188;2022-08-23T00:17:05;3.37;;;2.30;;
35578;SDS011;21687;48.900;9.188;2022-08-23T00:19:33;2.70;;;2.10;;
35578;SDS011;21687;48.900;9.188;2022-08-23T00:22:01;4.93;;;2.10;;
35578;SDS011;21687;48.900;9.188;2022-08-23T00:24:28;2.13;;;1.93;;
35578;SDS011;21687;48.900;9.188;2022-08-23T00:29:39;2.90;;;2.20;;
35578;SDS011;21687;48.900;9.188;2022-08-23T00:32:08;2.77;;;2.00;;
35578;SDS011;21687;48.900;9.188;2022-08-23T00:34:37;3.33;;;2.17;;
35578;SDS011;21687;48.900;9.188;2022-08-23T00:37:04;2.50;;;2.13;;
35578;SDS011;21687;48.900;9.188;2022-08-23T00:39:31;2.50;;;2.00;;
35578;SDS011;21687;48.900;9.188;2022-08-23T00:41:59;2.10;;;2.00;;
35578;SDS011;21687;48.900;9.188;2022-08-23T00:44:51;2.47;;;2.00;;
35578;SDS011;21687;48.900;9.188;2022-08-23T00:47:54;2.60;;;2.23;;
35578;SDS011;21687;48.900;9.188;2022-08-23T00:50:24;4.53;;;2.20;;
35578;SDS011;21687;48.900;9.188;2022-08-23T00:53:15;2.30;;;1.80;;
35578;SDS011;21687;48.900;9.188;2022-08-23T00:55:50;2.60;;;2.10;;
35578;SDS011;21687;48.900;9.188;2022-08-23T00:58:21;3.80;;;2.10;;
35578;SDS011;21687;48.900;9.188;2022-08-23T01:00:48;2.00;;;1.80;;
35578;SDS011;21687;48.900;9.188;2022-08-23T01:03:17;3.37;;;1.93;;
35578;SDS011;21687;48.900;9.188;2022-08-23T01:08:37;2.10;;;2.00;;
35578;SDS011;21687;48.900;9.188;2022-08-23T01:11:12;3.00;;;2.10;;
35578;SDS011;21687;48.900;9.188;2022-08-23T01:13:45;2.80;;;2.30;;
35578;SDS011;21687;48.900;9.188;2022-08-23T01:16:18;2.10;;;2.00;;
35578;SDS011;21687;48.900;9.188;2022-08-23T01:18:53;2.10;;;1.90;;
35578;SDS011;21687;48.900;9.188;2022-08-23T01:21:30;2.97;;;2.10;;
35578;SDS011;21687;48.900;9.188;2022-08-23T01:24:07;2.07;;;1.97;;
35578;SDS011;21687;48.900;9.188;2022-08-23T01:26:34;2.47;;;2.27;;
35578;SDS011;21687;48.900;9.188;2022-08-23T01:29:03;3.90;;;2.43;;
35578;SDS011;21687;48.900;9.188;2022-08-23T01:31:30;3.00;;;2.00;;
35578;SDS011;21687;48.900;9.188;2022-08-23T01:33:59;3.10;;;2.43;;
35578;SDS011;21687;48.900;9.188;2022-08-23T01:36:33;3.20;;;2.40;;
35578;SDS011;21687;48.900;9.188;2022-08-23T01:39:01;2.83;;;2.30;;
35578;SDS011;21687;48.900;9.188;2022-08-23T01:41:28;2.70;;;2.10;;
35578;SDS011;21687;48.900;9.188;2022-08-23T01:43:55;2.63;;;2.30;;
35578;SDS011;21687;48.900;9.188;2022-08-23T01:46:22;2.70;;;2.30;;
35578;SDS011;21687;48.900;9.188;2022-08-23T01:48:50;3.27;;;2.30;;
35578;SDS011;21687;48.900;9.188;2022-08-23T01:51:19;5.53;;;2.23;;
35578;SDS011;21687;48.900;9.188;2022-08-23T01:53:45;4.07;;;2.47;;
35578;SDS011;21687;48.900;9.188;2022-08-23T01:56:13;2.23;;;2.07;;
35578;SDS011;21687;48.900;9.188;2022-08-23T01:58:42;2.73;;;2.30;;
35578;SDS011;21687;48.900;9.188;2022-08-23T02:01:08;2.30;;;2.10;;
35578;SDS011;21687;48.900;9.188;2022-08-23T02:03:35;2.30;;;2.10;;
35578;SDS011;21687;48.900;9.188;2022-08-23T02:08:35;3.13;;;2.17;;
35578;SDS011;21687;48.900;9.188;2022-08-23T02:11:21;2.90;;;2.20;;
35578;SDS011;21687;48.900;9.188;2022-08-23T02:13:49;2.30;;;2.10;;
35578;SDS011;21687;48.900;9.188;2022-08-23T02:16:20;2.33;;;2.00;;
35578;SDS011;21687;48.900;9.188;2022-08-23T02:18:51;2.23;;;1.90;;
35578;SDS011;21687;48.900;9.188;2022-08-23T02:21:19;2.70;;;2.10;;
35578;SDS011;21687;48.900;9.188;2022-08-23T02:23:46;2.63;;;1.70;;
35578;SDS011;21687;48.900;9.188;2022-08-23T02:26:13;3.40;;;2.07;;
35578;SDS011;21687;48.900;9.188;2022-08-23T02:28:39;2.13;;;1.93;;
35578;SDS011;21687;48.900;9.188;2022-08-23T02:31:06;3.13;;;2.20;;
35578;SDS011;21687;48.900;9.188;2022-08-23T02:33:32;2.83;;;2.20;;
35578;SDS011;21687;48.900;9.188;2022-08-23T02:35:58;2.40;;;2.20;;
35578;SDS011;21687;48.900;9.188;2022-08-23T02:38:25;2.07;;;1.97;;
35578;SDS011;21687;48.900;9.188;2022-08-23T02:40:51;2.20;;;2.10;;
35578;SDS011;21687;48.900;9.188;2022-08-23T02:43:18;2.13;;;1.90;;
35578;SDS011;21687;48.900;9.188;2022-08-23T02:45:44;2.87;;;2.43;;
35578;SDS011;21687;48.900;9.188;2022-08-23T02:48:10;2.23;;;2.00;;
35578;SDS011;21687;48.900;9.188;2022-08-23T02:50:36;2.23;;;2.00;;
35578;SDS011;21687;48.900;9.188;2022-08-23T02:53:03;2.73;;;2.10;;
35578;SDS011;21687;48.900;9.188;2022-08-23T02:55:29;2.80;;;2.13;;
35578;SDS011;21687;48.900;9.188;2022-08-23T02:57:55;4.20;;;2.47;;
35578;SDS011;21687;48.900;9.188;2022-08-23T03:00:23;2.43;;;2.20;;
35578;SDS011;21687;48.900;9.188;2022-08-23T03:02:49;2.87;;;2.37;;
35578;SDS011;21687;48.900;9.188;2022-08-23T03:05:16;2.77;;;2.20;;
35578;SDS011;21687;48.900;9.188;2022-08-23T03:07:43;3.00;;;2.43;;
35578;SDS011;21687;48.900;9.188;2022-08-23T03:10:10;2.50;;;2.30;;
35578;SDS011;21687;48.900;9.188;2022-08-23T03:12:36;2.97;;;2.67;;
35578;SDS011;21687;48.900;9.188;2022-08-23T03:15:03;2.93;;;2.60;;
35578;SDS011;21687;48.900;9.188;2022-08-23T03:17:30;3.90;;;2.63;;
35578;SDS011;21687;48.900;9.188;2022-08-23T03:19:57;2.50;;;2.30;;
35578;SDS011;21687;48.900;9.188;2022-08-23T03:22:23;3.87;;;2.23;;
35578;SDS011;21687;48.900;9.188;2022-08-23T03:24:49;3.53;;;2.40;;
35578;SDS011;21687;48.900;9.188;2022-08-23T03:27:15;3.33;;;2.60;;
35578;SDS011;21687;48.900;9.188;2022-08-23T03:29:42;3.13;;;2.23;;
35578;SDS011;21687;48.900;9.188;2022-08-23T03:32:08;2.83;;;2.63;;
35578;SDS011;21687;48.900;9.188;2022-08-23T03:34:34;3.40;;;2.43;;
35578;SDS011;21687;48.900;9.188;2022-08-23T03:37:00;2.87;;;2.57;;
35578;SDS011;21687;48.900;9.188;2022-08-23T03:39:27;2.90;;;2.70;;
35578;SDS011;21687;48.900;9.188;2022-08-23T03:42:02;3.43;;;3.07;;
35578;SDS011;21687;48.900;9.188;2022-08-23T03:44:29;2.87;;;2.67;;
35578;SDS011;21687;48.900;9.188;2022-08-23T03:46:55;5.13;;;3.03;;
35578;SDS011;21687;48.900;9.188;2022-08-23T03:49:21;3.43;;;3.13;;
35578;SDS011;21687;48.900;9.188;2022-08-23T03:51:48;3.33;;;3.03;;
35578;SDS011;21687;48.900;9.188;2022-08-23T03:54:14;3.03;;;2.80;;
35578;SDS011;21687;48.900;9.188;2022-08-23T03:56:51;4.07;;;3.20;;
35578;SDS011;21687;48.900;9.188;2022-08-23T03:59:27;3.70;;;3.30;;
35578;SDS011;21687;48.900;9.188;2022-08-23T04:01:54;4.60;;;3.43;;
35578;SDS011;21687;48.900;9.188;2022-08-23T04:04:21;3.70;;;3.40;;
35578;SDS011;21687;48.900;9.188;2022-08-23T04:06:47;4.70;;;3.63;;
35578;SDS011;21687;48.900;9.188;2022-08-23T04:09:14;3.50;;;3.20;;
35578;SDS011;21687;48.900;9.188;2022-08-23T04:11:40;5.40;;;4.00;;
35578;SDS011;21687;48.900;9.188;2022-08-23T04:14:07;3.93;;;3.53;;
35578;SDS011;21687;48.900;9.188;2022-08-23T04:16:34;5.37;;;4.00;;
35578;SDS011;21687;48.900;9.188;2022-08-23T04:19:08;7.93;;;4.20;;
35578;SDS011;21687;48.900;9.188;2022-08-23T04:21:39;4.77;;;4.10;;
35578;SDS011;21687;48.900;9.188;2022-08-23T04:24:09;6.00;;;4.00;;
35578;SDS011;21687;48.900;9.188;2022-08-23T04:26:35;4.13;;;3.60;;
35578;SDS011;21687;48.900;9.188;2022-08-23T04:29:01;4.30;;;3.70;;
35578;SDS011;21687;48.900;9.188;2022-08-23T04:31:27;4.67;;;4.03;;
35578;SDS011;21687;48.900;9.188;2022-08-23T04:33:54;4.00;;;3.60;;
35578;SDS011;21687;48.900;9.188;2022-08-23T04:36:21;4.23;;;3.80;;
35578;SDS011;21687;48.900;9.188;2022-08-23T04:38:47;4.93;;;4.23;;
35578;SDS011;21687;48.900;9.188;2022-08-23T04:41:13;4.73;;;3.53;;
35578;SDS011;21687;48.900;9.188;2022-08-23T04:43:59;4.80;;;3.73;;
35578;SDS011;21687;48.900;9.188;2022-08-23T04:46:26;3.73;;;3.17;;
35578;SDS011;21687;48.900;9.188;2022-08-23T04:48:52;4.93;;;3.33;;
35578;SDS011;21687;48.900;9.188;2022-08-23T04:51:19;4.30;;;3.30;;
35578;SDS011;21687;48.900;9.188;2022-08-23T04:53:46;4.63;;;3.10;;
35578;SDS011;21687;48.900;9.188;2022-08-23T04:56:12;3.50;;;2.80;;
35578;SDS011;21687;48.900;9.188;2022-08-23T04:58:39;5.53;;;3.20;;
35578;SDS011;21687;48.900;9.188;2022-08-23T05:01:06;4.30;;;2.80;;
35578;SDS011;21687;48.900;9.188;2022-08-23T05:03:34;3.80;;;3.17;;
35578;SDS011;21687;48.900;9.188;2022-08-23T05:06:01;3.20;;;3.00;;
35578;SDS011;21687;48.900;9.188;2022-08-23T05:08:29;4.77;;;3.00;;
35578;SDS011;21687;48.900;9.188;2022-08-23T05:11:00;3.37;;;3.07;;
35578;SDS011;21687;48.900;9.188;2022-08-23T05:13:28;3.10;;;2.73;;
35578;SDS011;21687;48.900;9.188;2022-08-23T05:15:54;3.63;;;2.90;;
35578;SDS011;21687;48.900;9.188;2022-08-23T05:18:21;3.57;;;2.80;;
35578;SDS011;21687;48.900;9.188;2022-08-23T05:20:48;4.10;;;2.93;;
35578;SDS011;21687;48.900;9.188;2022-08-23T05:23:15;3.20;;;2.90;;
35578;SDS011;21687;48.900;9.188;2022-08-23T05:25:41;2.97;;;2.60;;
35578;SDS011;21687;48.900;9.188;2022-08-23T05:28:35;3.63;;;2.60;;
35578;SDS011;21687;48.900;9.188;2022-08-23T05:31:01;3.63;;;2.60;;
35578;SDS011;21687;48.900;9.188;2022-08-23T05:33:36;3.93;;;2.87;;
35578;SDS011;21687;48.900;9.188;2022-08-23T05:36:03;3.17;;;2.80;;
35578;SDS011;21687;48.900;9.188;2022-08-23T05:38:30;3.10;;;2.80;;
35578;SDS011;21687;48.900;9.188;2022-08-23T05:40:56;4.47;;;2.60;;
35578;SDS011;21687;48.900;9.188;2022-08-23T05:43:26;2.63;;;2.30;;
35578;SDS011;21687;48.900;9.188;2022-08-23T05:46:11;3.30;;;3.00;;
35578;SDS011;21687;48.900;9.188;2022-08-23T05:48:43;2.80;;;2.43;;
35578;SDS011;21687;48.900;9.188;2022-08-23T05:51:12;2.90;;;2.60;;
35578;SDS011;21687;48.900;9.188;2022-08-23T05:53:47;4.03;;;3.00;;
35578;SDS011;21687;48.900;9.188;2022-08-23T05:56:18;4.97;;;2.70;;
35578;SDS011;21687;48.900;9.188;2022-08-23T05:58:52;4.17;;;2.90;;
35578;SDS011;21687;48.900;9.188;2022-08-23T06:01:22;4.20;;;3.00;;
35578;SDS011;21687;48.900;9.188;2022-08-23T06:03:49;3.53;;;2.83;;
35578;SDS011;21687;48.900;9.188;2022-08-23T06:06:16;3.53;;;3.17;;
35578;SDS011;21687;48.900;9.188;2022-08-23T06:08:45;3.13;;;2.77;;
35578;SDS011;21687;48.900;9.188;2022-08-23T06:11:24;2.70;;;2.50;;
35578;SDS011;21687;48.900;9.188;2022-08-23T06:13:53;2.77;;;2.53;;
35578;SDS011;21687;48.900;9.188;2022-08-23T06:16:23;3.97;;;2.70;;
35578;SDS011;21687;48.900;9.188;2022-08-23T06:18:52;3.20;;;2.70;;
35578;SDS011;21687;48.900;9.188;2022-08-23T06:21:21;3.47;;;3.00;;
35578;SDS011;21687;48.900;9.188;2022-08-23T06:23:49;4.17;;;2.60;;
35578;SDS011;21687;48.900;9.188;2022-08-23T06:26:22;3.90;;;2.90;;
35578;SDS011;21687;48.900;9.188;2022-08-23T06:28:58;3.03;;;2.73;;
35578;SDS011;21687;48.900;9.188;2022-08-23T06:31:28;4.10;;;2.60;;
35578;SDS011;21687;48.900;9.188;2022-08-23T06:34:12;3.60;;;2.60;;
35578;SDS011;21687;48.900;9.188;2022-08-23T06:36:39;3.07;;;2.67;;
35578;SDS011;21687;48.900;9.188;2022-08-23T06:39:07;3.23;;;2.57;;
35578;SDS011;21687;48.900;9.188;2022-08-23T06:41:34;3.90;;;2.70;;
35578;SDS011;21687;48.900;9.188;2022-08-23T06:44:00;3.10;;;2.47;;
35578;SDS011;21687;48.900;9.188;2022-08-23T06:46:28;2.70;;;2.10;;
35578;SDS011;21687;48.900;9.188;2022-08-23T06:48:55;3.27;;;2.37;;
35578;SDS011;21687;48.900;9.188;2022-08-23T06:51:25;3.17;;;2.30;;
35578;SDS011;21687;48.900;9.188;2022-08-23T06:53:54;3.03;;;2.30;;
35578;SDS011;21687;48.900;9.188;2022-08-23T06:56:22;2.00;;;1.90;;
35578;SDS011;21687;48.900;9.188;2022-08-23T06:58:50;3.43;;;2.20;;
35578;SDS011;21687;48.900;9.188;2022-08-23T07:01:37;2.70;;;1.80;;
35578;SDS011;21687;48.900;9.188;2022-08-23T07:04:07;2.93;;;2.03;;
35578;SDS011;21687;48.900;9.188;2022-08-23T07:06:35;3.47;;;2.20;;
35578;SDS011;21687;48.900;9.188;2022-08-23T07:09:02;5.50;;;2.50;;
35578;SDS011;21687;48.900;9.188;2022-08-23T07:11:30;2.40;;;2.10;;
35578;SDS011;21687;48.900;9.188;2022-08-23T07:14:00;4.13;;;2.20;;
35578;SDS011;21687;48.900;9.188;2022-08-23T07:16:31;2.77;;;2.27;;
35578;SDS011;21687;48.900;9.188;2022-08-23T07:18:59;2.30;;;2.10;;
35578;SDS011;21687;48.900;9.188;2022-08-23T07:21:25;3.03;;;2.20;;
35578;SDS011;21687;48.900;9.188;2022-08-23T07:23:51;3.50;;;2.17;;
35578;SDS011;21687;48.900;9.188;2022-08-23T07:26:19;2.90;;;2.37;;
35578;SDS011;21687;48.900;9.188;2022-08-23T07:28:46;3.00;;;2.10;;
35578;SDS011;21687;48.900;9.188;2022-08-23T07:31:15;3.40;;;2.27;;
35578;SDS011;21687;48.900;9.188;2022-08-23T07:33:43;3.07;;;2.10;;
35578;SDS011;21687;48.900;9.188;2022-08-23T07:36:12;3.33;;;2.13;;
35578;SDS011;21687;48.900;9.188;2022-08-23T07:38:40;4.63;;;2.03;;
35578;SDS011;21687;48.900;9.188;2022-08-23T07:41:08;2.90;;;2.10;;
35578;SDS011;21687;48.900;9.188;2022-08-23T07:43:35;6.17;;;2.43;;
35578;SDS011;21687;48.900;9.188;2022-08-23T07:46:03;5.07;;;2.30;;
35578;SDS011;21687;48.900;9.188;2022-08-23T07:48:30;6.63;;;2.97;;
35578;SDS011;21687;48.900;9.188;2022-08-23T07:50:58;5.93;;;2.40;;
35578;SDS011;21687;48.900;9.188;2022-08-23T07:53:27;4.33;;;3.00;;
35578;SDS011;21687;48.900;9.188;2022-08-23T07:55:53;2.97;;;2.37;;
35578;SDS011;21687;48.900;9.188;2022-08-23T07:58:20;2.17;;;2.03;;
35578;SDS011;21687;48.900;9.188;2022-08-23T08:00:49;2.77;;;2.33;;
35578;SDS011;21687;48.900;9.188;2022-08-23T08:03:16;3.20;;;2.10;;
35578;SDS011;21687;48.900;9.188;2022-08-23T08:05:43;3.40;;;2.20;;
35578;SDS011;21687;48.900;9.188;2022-08-23T08:08:10;3.87;;;2.20;;
35578;SDS011;21687;48.900;9.188;2022-08-23T08:10:38;3.80;;;2.00;;
35578;SDS011;21687;48.900;9.188;2022-08-23T08:13:08;2.47;;;2.07;;
35578;SDS011;21687;48.900;9.188;2022-08-23T08:15:34;2.73;;;2.10;;
35578;SDS011;21687;48.900;9.188;2022-08-23T08:18:04;3.17;;;1.90;;
35578;SDS011;21687;48.900;9.188;2022-08-23T08:20:30;3.57;;;2.10;;
35578;SDS011;21687;48.900;9.188;2022-08-23T08:22:59;3.60;;;2.10;;
35578;SDS011;21687;48.900;9.188;2022-08-23T08:25:25;2.57;;;2.37;;
35578;SDS011;21687;48.900;9.188;2022-08-23T08:27:52;2.30;;;2.10;;
35578;SDS011;21687;48.900;9.188;2022-08-23T08:30:18;2.20;;;2.00;;
35578;SDS011;21687;48.900;9.188;2022-08-23T08:32:45;2.43;;;2.23;;
35578;SDS011;21687;48.900;9.188;2022-08-23T08:35:11;2.23;;;2.03;;
35578;SDS011;21687;48.900;9.188;2022-08-23T08:37:37;2.87;;;2.07;;
35578;SDS011;21687;48.900;9.188;2022-08-23T08:40:04;3.70;;;2.03;;
35578;SDS011;21687;48.900;9.188;2022-08-23T08:42:50;2.60;;;2.10;;
35578;SDS011;21687;48.900;9.188;2022-08-23T08:45:25;2.43;;;2.13;;
35578;SDS011;21687;48.900;9.188;2022-08-23T08:47:59;2.00;;;1.80;;
35578;SDS011;21687;48.900;9.188;2022-08-23T08:53:24;2.33;;;2.10;;
35578;SDS011;21687;48.900;9.188;2022-08-23T08:56:00;2.73;;;2.00;;
35578;SDS011;21687;48.900;9.188;2022-08-23T08:58:45;3.40;;;2.17;;
35578;SDS011;21687;48.900;9.188;2022-08-23T09:01:17;2.80;;;2.43;;
35578;SDS011;21687;48.900;9.188;2022-08-23T09:03:45;2.33;;;2.13;;
35578;SDS011;21687;48.900;9.188;2022-08-23T09:06:23;2.53;;;1.90;;
35578;SDS011;21687;48.900;9.188;2022-08-23T09:09:14;2.10;;;1.90;;
35578;SDS011;21687;48.900;9.188;2022-08-23T09:12:00;2.27;;;1.80;;
35578;SDS011;21687;48.900;9.188;2022-08-23T09:14:35;3.67;;;2.30;;
35578;SDS011;21687;48.900;9.188;2022-08-23T09:17:23;2.03;;;1.83;;
35578;SDS011;21687;48.900;9.188;2022-08-23T09:20:04;3.53;;;2.17;;
35578;SDS011;21687;48.900;9.188;2022-08-23T09:22:39;2.00;;;1.90;;
35578;SDS011;21687;48.900;9.188;2022-08-23T09:25:11;2.77;;;2.13;;
35578;SDS011;21687;48.900;9.188;2022-08-23T09:27:39;3.53;;;1.90;;
35578;SDS011;21687;48.900;9.188;2022-08-23T09:30:08;1.80;;;1.70;;
35578;SDS011;21687;48.900;9.188;2022-08-23T09:32:38;2.03;;;1.80;;
35578;SDS011;21687;48.900;9.188;2022-08-23T09:35:19;1.63;;;1.53;;
35578;SDS011;21687;48.900;9.188;2022-08-23T09:43:08;2.73;;;1.90;;
35578;SDS011;21687;48.900;9.188;2022-08-23T09:45:36;1.73;;;1.60;;
35578;SDS011;21687;48.900;9.188;2022-08-23T09:48:05;1.87;;;1.73;;
35578;SDS011;21687;48.900;9.188;2022-08-23T09:51:02;2.93;;;1.70;;
35578;SDS011;21687;48.900;9.188;2022-08-23T09:53:29;2.20;;;1.50;;
35578;SDS011;21687;48.900;9.188;2022-08-23T09:55:55;1.63;;;1.53;;
35578;SDS011;21687;48.900;9.188;2022-08-23T09:58:51;2.83;;;1.73;;
35578;SDS011;21687;48.900;9.188;2022-08-23T10:01:25;2.57;;;2.07;;
35578;SDS011;21687;48.900;9.188;2022-08-23T10:06:39;1.70;;;1.60;;
35578;SDS011;21687;48.900;9.188;2022-08-23T10:09:08;1.77;;;1.67;;
35578;SDS011;21687;48.900;9.188;2022-08-23T10:11:58;4.43;;;1.83;;
35578;SDS011;21687;48.900;9.188;2022-08-23T10:14:26;1.70;;;1.53;;
35578;SDS011;21687;48.900;9.188;2022-08-23T10:33:48;1.87;;;1.60;;
35578;SDS011;21687;48.900;9.188;2022-08-23T10:39:44;1.53;;;1.43;;
35578;SDS011;21687;48.900;9.188;2022-08-23T10:45:15;3.90;;;1.80;;
35578;SDS011;21687;48.900;9.188;2022-08-23T10:56:10;2.33;;;1.50;;
35578;SDS011;21687;48.900;9.188;2022-08-23T10:58:47;2.97;;;1.70;;
35578;SDS011;21687;48.900;9.188;2022-08-23T11:01:20;2.77;;;1.80;;
35578;SDS011;21687;48.900;9.188;2022-08-23T11:03:51;3.60;;;1.90;;
35578;SDS011;21687;48.900;9.188;2022-08-23T11:11:43;1.57;;;1.47;;
35578;SDS011;21687;48.900;9.188;2022-08-23T11:14:38;2.83;;;1.83;;
35578;SDS011;21687;48.900;9.188;2022-08-23T11:20:03;1.90;;;1.70;;
35578;SDS011;21687;48.900;9.188;2022-08-23T11:22:34;2.93;;;1.90;;
35578;SDS011;21687;48.900;9.188;2022-08-23T11:27:48;3.43;;;1.90;;
35578;SDS011;21687;48.900;9.188;2022-08-23T11:33:01;1.67;;;1.57;;
35578;SDS011;21687;48.900;9.188;2022-08-23T11:35:53;1.67;;;1.57;;
35578;SDS011;21687;48.900;9.188;2022-08-23T11:43:47;1.60;;;1.47;;
35578;SDS011;21687;48.900;9.188;2022-08-23T11:49:29;2.13;;;1.67;;
35578;SDS011;21687;48.900;9.188;2022-08-23T11:52:11;3.70;;;1.57;;
35578;SDS011;21687;48.900;9.188;2022-08-23T11:57:55;3.77;;;2.10;;
35578;SDS011;21687;48.900;9.188;2022-08-23T12:03:27;3.30;;;1.73;;
35578;SDS011;21687;48.900;9.188;2022-08-23T12:06:05;1.93;;;1.53;;
35578;SDS011;21687;48.900;9.188;2022-08-23T12:08:59;2.93;;;1.60;;
35578;SDS011;21687;48.900;9.188;2022-08-23T12:19:41;2.20;;;1.43;;
35578;SDS011;21687;48.900;9.188;2022-08-23T12:22:24;1.97;;;1.60;;
35578;SDS011;21687;48.900;9.188;2022-08-23T12:27:34;2.00;;;1.87;;
35578;SDS011;21687;48.900;9.188;2022-08-23T12:30:21;1.67;;;1.57;;
35578;SDS011;21687;48.900;9.188;2022-08-23T12:40:58;3.63;;;1.67;;
35578;SDS011;21687;48.900;9.188;2022-08-23T12:44:02;1.70;;;1.60;;
35578;SDS011;21687;48.900;9.188;2022-08-23T12:49:09;1.70;;;1.60;;
35578;SDS011;21687;48.900;9.188;2022-08-23T12:51:51;3.00;;;1.90;;
35578;SDS011;21687;48.900;9.188;2022-08-23T12:54:21;2.10;;;1.67;;
35578;SDS011;21687;48.900;9.188;2022-08-23T12:56:57;1.60;;;1.50;;
35578;SDS011;21687;48.900;9.188;2022-08-23T12:59:47;2.00;;;1.80;;
35578;SDS011;21687;48.900;9.188;2022-08-23T13:02:12;1.93;;;1.50;;
35578;SDS011;21687;48.900;9.188;2022-08-23T13:05:16;1.63;;;1.53;;
35578;SDS011;21687;48.900;9.188;2022-08-23T13:07:54;1.80;;;1.63;;
35578;SDS011;21687;48.900;9.188;2022-08-23T13:10:22;2.10;;;1.80;;
35578;SDS011;21687;48.900;9.188;2022-08-23T13:12:49;1.70;;;1.60;;
35578;SDS011;21687;48.900;9.188;2022-08-23T13:18:09;1.77;;;1.67;;
35578;SDS011;21687;48.900;9.188;2022-08-23T13:20:46;3.63;;;1.80;;
35578;SDS011;21687;48.900;9.188;2022-08-23T13:23:12;1.60;;;1.50;;
35578;SDS011;21687;48.900;9.188;2022-08-23T13:25:51;1.70;;;1.60;;
35578;SDS011;21687;48.900;9.188;2022-08-23T13:28:25;1.50;;;1.40;;
35578;SDS011;21687;48.900;9.188;2022-08-23T13:31:00;1.70;;;1.60;;
35578;SDS011;21687;48.900;9.188;2022-08-23T13:33:29;1.97;;;1.60;;
35578;SDS011;21687;48.900;9.188;2022-08-23T13:38:43;1.70;;;1.60;;
35578;SDS011;21687;48.900;9.188;2022-08-23T13:41:11;1.70;;;1.60;;
35578;SDS011;21687;48.900;9.188;2022-08-23T13:44:03;2.33;;;1.50;;
35578;SDS011;21687;48.900;9.188;2022-08-23T13:46:31;1.70;;;1.60;;
35578;SDS011;21687;48.900;9.188;2022-08-23T13:54:05;1.70;;;1.60;;
35578;SDS011;21687;48.900;9.188;2022-08-23T13:56:34;2.40;;;1.97;;
35578;SDS011;21687;48.900;9.188;2022-08-23T13:59:06;2.10;;;1.90;;
35578;SDS011;21687;48.900;9.188;2022-08-23T14:01:50;1.70;;;1.40;;
35578;SDS011;21687;48.900;9.188;2022-08-23T14:04:16;1.73;;;1.63;;
35578;SDS011;21687;48.900;9.188;2022-08-23T14:06:43;1.83;;;1.50;;
35578;SDS011;21687;48.900;9.188;2022-08-23T14:09:10;4.40;;;1.60;;
35578;SDS011;21687;48.900;9.188;2022-08-23T14:11:36;1.87;;;1.70;;
35578;SDS011;21687;48.900;9.188;2022-08-23T14:14:04;1.80;;;1.70;;
35578;SDS011;21687;48.900;9.188;2022-08-23T14:16:31;1.80;;;1.70;;
35578;SDS011;21687;48.900;9.188;2022-08-23T14:19:02;4.43;;;2.47;;
35578;SDS011;21687;48.900;9.188;2022-08-23T14:21:29;1.80;;;1.70;;
35578;SDS011;21687;48.900;9.188;2022-08-23T14:23:55;1.80;;;1.70;;
35578;SDS011;21687;48.900;9.188;2022-08-23T14:26:22;1.70;;;1.60;;
35578;SDS011;21687;48.900;9.188;2022-08-23T14:28:48;5.27;;;1.80;;
35578;SDS011;21687;48.900;9.188;2022-08-23T14:31:16;2.30;;;1.70;;
35578;SDS011;21687;48.900;9.188;2022-08-23T14:33:44;1.70;;;1.60;;
35578;SDS011;21687;48.900;9.188;2022-08-23T14:36:11;1.87;;;1.60;;
35578;SDS011;21687;48.900;9.188;2022-08-23T14:38:38;1.70;;;1.60;;
35578;SDS011;21687;48.900;9.188;2022-08-23T14:41:05;2.13;;;1.93;;
35578;SDS011;21687;48.900;9.188;2022-08-23T14:43:37;1.73;;;1.63;;
35578;SDS011;21687;48.900;9.188;2022-08-23T14:46:03;2.17;;;1.97;;
35578;SDS011;21687;48.900;9.188;2022-08-23T14:48:30;3.30;;;1.77;;
35578;SDS011;21687;48.900;9.188;2022-08-23T14:50:56;1.50;;;1.40;;
35578;SDS011;21687;48.900;9.188;2022-08-23T14:53:25;2.30;;;1.93;;
35578;SDS011;21687;48.900;9.188;2022-08-23T14:55:54;3.03;;;1.70;;
35578;SDS011;21687;48.900;9.188;2022-08-23T14:58:22;1.87;;;1.77;;
35578;SDS011;21687;48.900;9.188;2022-08-23T15:00:49;3.17;;;1.90;;
35578;SDS011;21687;48.900;9.188;2022-08-23T15:03:20;2.40;;;1.60;;
35578;SDS011;21687;48.900;9.188;2022-08-23T15:05:49;3.10;;;1.97;;
35578;SDS011;21687;48.900;9.188;2022-08-23T15:08:17;2.53;;;1.87;;
35578;SDS011;21687;48.900;9.188;2022-08-23T15:10:44;1.67;;;1.47;;
35578;SDS011;21687;48.900;9.188;2022-08-23T15:13:11;4.00;;;2.00;;
35578;SDS011;21687;48.900;9.188;2022-08-23T15:15:37;1.77;;;1.67;;
35578;SDS011;21687;48.900;9.188;2022-08-23T15:18:06;3.00;;;1.70;;
35578;SDS011;21687;48.900;9.188;2022-08-23T15:20:34;2.13;;;1.83;;
35578;SDS011;21687;48.900;9.188;2022-08-23T15:23:03;3.07;;;1.90;;
35578;SDS011;21687;48.900;9.188;2022-08-23T15:25:31;2.17;;;1.87;;
35578;SDS011;21687;48.900;9.188;2022-08-23T15:28:00;1.83;;;1.73;;
35578;SDS011;21687;48.900;9.188;2022-08-23T15:30:28;1.90;;;1.67;;
35578;SDS011;21687;48.900;9.188;2022-08-23T15:32:55;2.10;;;1.90;;
35578;SDS011;21687;48.900;9.188;2022-08-23T15:35:21;1.67;;;1.53;;
35578;SDS011;21687;48.900;9.188;2022-08-23T15:37:49;2.00;;;1.67;;
35578;SDS011;21687;48.900;9.188;2022-08-23T15:40:17;2.80;;;2.00;;
35578;SDS011;21687;48.900;9.188;2022-08-23T15:42:43;1.80;;;1.70;;
35578;SDS011;21687;48.900;9.188;2022-08-23T15:45:09;1.90;;;1.80;;
35578;SDS011;21687;48.900;9.188;2022-08-23T15:47:41;2.60;;;1.70;;
35578;SDS011;21687;48.900;9.188;2022-08-23T15:50:17;1.93;;;1.73;;
35578;SDS011;21687;48.900;9.188;2022-08-23T15:52:45;1.70;;;1.60;;
35578;SDS011;21687;48.900;9.188;2022-08-23T15:55:12;2.00;;;1.63;;
35578;SDS011;21687;48.900;9.188;2022-08-23T15:57:40;2.33;;;1.77;;
35578;SDS011;21687;48.900;9.188;2022-08-23T16:00:13;1.67;;;1.57;;
35578;SDS011;21687;48.900;9.188;2022-08-23T16:02:41;1.87;;;1.67;;
35578;SDS011;21687;48.900;9.188;2022-08-23T16:05:08;2.73;;;2.20;;
35578;SDS011;21687;48.900;9.188;2022-08-23T16:07:35;2.93;;;1.70;;
35578;SDS011;21687;48.900;9.188;2022-08-23T16:10:03;1.83;;;1.67;;
35578;SDS011;21687;48.900;9.188;2022-08-23T16:12:31;2.20;;;1.70;;
35578;SDS011;21687;48.900;9.188;2022-08-23T16:14:57;2.57;;;1.73;;
35578;SDS011;21687;48.900;9.188;2022-08-23T16:17:24;2.07;;;1.87;;
35578;SDS011;21687;48.900;9.188;2022-08-23T16:19:50;1.73;;;1.63;;
35578;SDS011;21687;48.900;9.188;2022-08-23T16:22:18;2.50;;;1.93;;
35578;SDS011;21687;48.900;9.188;2022-08-23T16:24:44;1.70;;;1.60;;
35578;SDS011;21687;48.900;9.188;2022-08-23T16:27:11;2.20;;;1.60;;
35578;SDS011;21687;48.900;9.188;2022-08-23T16:29:37;1.80;;;1.70;;
35578;SDS011;21687;48.900;9.188;2022-08-23T16:32:05;5.47;;;2.00;;
35578;SDS011;21687;48.900;9.188;2022-08-23T16:34:32;1.70;;;1.60;;
35578;SDS011;21687;48.900;9.188;2022-08-23T16:37:00;2.30;;;1.73;;
35578;SDS011;21687;48.900;9.188;2022-08-23T16:39:30;2.07;;;1.70;;
35578;SDS011;21687;48.900;9.188;2022-08-23T16:41:58;2.57;;;1.80;;
35578;SDS011;21687;48.900;9.188;2022-08-23T16:44:26;1.93;;;1.80;;
35578;SDS011;21687;48.900;9.188;2022-08-23T16:46:53;3.17;;;1.60;;
35578;SDS011;21687;48.900;9.188;2022-08-23T16:49:20;1.70;;;1.60;;
35578;SDS011;21687;48.900;9.188;2022-08-23T16:51:47;2.70;;;1.80;;
35578;SDS011;21687;48.900;9.188;2022-08-23T16:54:14;2.37;;;1.90;;
35578;SDS011;21687;48.900;9.188;2022-08-23T16:56:43;1.83;;;1.53;;
35578;SDS011;21687;48.900;9.188;2022-08-23T16:59:10;1.70;;;1.60;;